QFA6010 YSSY-YMML
Flight info
| Callsign | QFA6010 |
|---|---|
| Flight time | 1h 8m |
| Altitude | 38000 |
| Route | WOL H65 LEECE Q29 ML |
| Aircraft | A388/J-SADE2E3FGHIJ3J4J5M1RWXY/LB1D1 |
Departure
| Time | 2026-05-04 10:10 |
|---|---|
| Airport | Sydney Kingsford Smith International Airport (YSSY) |
Arrival
| Time | 2026-05-04 11:19 |
|---|---|
| Airport | Melbourne Airport (YMML) |
| Time | Latitude | Longitude | Altitude | Speed | Heading |
|---|---|---|---|---|---|
| 2026-05-04 09:49 | -33.93563 | 151.16820 | 26 ft | 0 kts | 237° |
| 2026-05-04 09:56 | -33.93558 | 151.16829 | 32 ft | 2 kts | 236° |
| 2026-05-04 09:57 | -33.93548 | 151.16845 | 32 ft | 2 kts | 236° |
| 2026-05-04 09:57 | -33.93539 | 151.16862 | 32 ft | 2 kts | 236° |
| 2026-05-04 09:57 | -33.93530 | 151.16879 | 30 ft | 2 kts | 235° |
| 2026-05-04 09:57 | -33.93520 | 151.16895 | 32 ft | 2 kts | 235° |
| 2026-05-04 09:58 | -33.93510 | 151.16910 | 31 ft | 2 kts | 230° |
| 2026-05-04 09:58 | -33.93496 | 151.16920 | 32 ft | 2 kts | 188° |
| 2026-05-04 09:58 | -33.93493 | 151.16919 | 31 ft | 0 kts | 172° |
| 2026-05-04 10:00 | -33.93527 | 151.17079 | 27 ft | 14 kts | 104° |
| 2026-05-04 10:00 | -33.93666 | 151.17142 | 28 ft | 41 kts | 168° |
| 2026-05-04 10:02 | -33.95229 | 151.17550 | 24 ft | 38 kts | 168° |
| 2026-05-04 10:04 | -33.96438 | 151.17912 | 29 ft | 0 kts | 91° |
| 2026-05-04 10:08 | -33.96438 | 151.17915 | 29 ft | 0 kts | 91° |
| 2026-05-04 10:09 | -33.96438 | 151.17917 | 29 ft | 3 kts | 91° |
| 2026-05-04 10:09 | -33.96408 | 151.18034 | 29 ft | 12 kts | 21° |
| 2026-05-04 10:09 | -33.96320 | 151.18037 | 29 ft | 15 kts | 348° |
| 2026-05-04 10:09 | -33.95863 | 151.17926 | 27 ft | 121 kts | 347° |
| 2026-05-04 10:10 | -33.94858 | 151.17640 | 456 ft | 157 kts | 348° |
| 2026-05-04 10:10 | -33.93831 | 151.17208 | 1441 ft | 160 kts | 331° |
| 2026-05-04 10:10 | -33.92960 | 151.16238 | 2032 ft | 183 kts | 313° |
| 2026-05-04 10:10 | -33.92222 | 151.14877 | 2239 ft | 204 kts | 303° |
| 2026-05-04 10:11 | -33.91500 | 151.13386 | 2741 ft | 215 kts | 303° |
| 2026-05-04 10:11 | -33.90727 | 151.11747 | 3346 ft | 239 kts | 301° |
| 2026-05-04 10:11 | -33.89882 | 151.09887 | 3875 ft | 265 kts | 302° |
| 2026-05-04 10:11 | -33.88915 | 151.07945 | 4877 ft | 266 kts | 305° |
| 2026-05-04 10:12 | -33.87930 | 151.06148 | 6457 ft | 250 kts | 306° |
| 2026-05-04 10:12 | -33.86954 | 151.04396 | 7447 ft | 259 kts | 306° |
| 2026-05-04 10:12 | -33.85912 | 151.02511 | 7967 ft | 282 kts | 305° |
| 2026-05-04 10:12 | -33.84998 | 151.00354 | 8638 ft | 297 kts | 290° |
| 2026-05-04 10:13 | -33.84509 | 150.97863 | 9097 ft | 316 kts | 288° |
| 2026-05-04 10:13 | -33.83907 | 150.95217 | 9408 ft | 339 kts | 287° |
| 2026-05-04 10:13 | -33.83442 | 150.92379 | 10079 ft | 351 kts | 279° |
| 2026-05-04 10:13 | -33.83573 | 150.89409 | 10845 ft | 363 kts | 261° |
| 2026-05-04 10:14 | -33.84527 | 150.86548 | 11645 ft | 377 kts | 243° |
| 2026-05-04 10:14 | -33.86226 | 150.84090 | 12454 ft | 390 kts | 226° |
| 2026-05-04 10:16 | -34.06024 | 150.83593 | 17175 ft | 439 kts | 183° |
| 2026-05-04 10:16 | -34.09086 | 150.83458 | 17779 ft | 442 kts | 186° |
| 2026-05-04 10:16 | -34.12168 | 150.83201 | 18376 ft | 445 kts | 188° |
| 2026-05-04 10:16 | -34.15267 | 150.82902 | 18896 ft | 449 kts | 188° |
| 2026-05-04 10:17 | -34.18391 | 150.82596 | 19407 ft | 452 kts | 188° |
| 2026-05-04 10:17 | -34.21536 | 150.82294 | 19796 ft | 459 kts | 188° |
| 2026-05-04 10:19 | -34.44712 | 150.80140 | 22917 ft | 490 kts | 188° |
| 2026-05-04 10:19 | -34.48135 | 150.79822 | 23475 ft | 494 kts | 189° |
| 2026-05-04 10:19 | -34.51526 | 150.79196 | 23930 ft | 491 kts | 199° |
| 2026-05-04 10:19 | -34.54675 | 150.77819 | 24475 ft | 484 kts | 211° |
| 2026-05-04 10:20 | -34.57573 | 150.75694 | 25024 ft | 478 kts | 223° |
| 2026-05-04 10:20 | -34.59965 | 150.73016 | 25612 ft | 471 kts | 234° |
| 2026-05-04 10:20 | -34.61929 | 150.69856 | 26232 ft | 468 kts | 241° |
| 2026-05-04 10:20 | -34.63727 | 150.66550 | 26860 ft | 471 kts | 242° |
| 2026-05-04 10:21 | -34.65551 | 150.63220 | 27484 ft | 475 kts | 242° |
| 2026-05-04 10:21 | -34.67441 | 150.59899 | 28108 ft | 479 kts | 240° |
| 2026-05-04 10:21 | -34.69374 | 150.56606 | 28890 ft | 480 kts | 240° |
| 2026-05-04 10:21 | -34.71346 | 150.53292 | 29303 ft | 488 kts | 239° |
| 2026-05-04 10:22 | -34.75377 | 150.46567 | 30401 ft | 496 kts | 239° |
| 2026-05-04 10:22 | -34.77410 | 150.43179 | 31052 ft | 495 kts | 239° |
| 2026-05-04 10:22 | -34.79438 | 150.39794 | 31633 ft | 497 kts | 240° |
| 2026-05-04 10:23 | -34.81478 | 150.36381 | 32200 ft | 498 kts | 240° |
| 2026-05-04 10:23 | -34.83511 | 150.32978 | 33004 ft | 495 kts | 240° |
| 2026-05-04 10:25 | -34.97227 | 150.09910 | 38293 ft | 471 kts | 241° |
| 2026-05-04 10:25 | -34.99153 | 150.06653 | 38455 ft | 477 kts | 241° |
| 2026-05-04 10:25 | -35.01073 | 150.03412 | 38078 ft | 466 kts | 241° |
| 2026-05-04 10:26 | -35.04855 | 149.97010 | 38061 ft | 468 kts | 241° |
| 2026-05-04 10:26 | -35.08047 | 149.91593 | 38056 ft | 470 kts | 241° |
| 2026-05-04 10:27 | -35.12479 | 149.84070 | 38070 ft | 469 kts | 241° |
| 2026-05-04 10:27 | -35.16287 | 149.77594 | 38071 ft | 468 kts | 241° |
| 2026-05-04 10:28 | -35.19462 | 149.72184 | 38068 ft | 468 kts | 241° |
| 2026-05-04 10:28 | -35.23234 | 149.65747 | 38072 ft | 468 kts | 241° |
| 2026-05-04 10:29 | -35.27027 | 149.59259 | 38076 ft | 469 kts | 242° |
| 2026-05-04 10:29 | -35.30843 | 149.52723 | 38085 ft | 469 kts | 242° |
| 2026-05-04 10:30 | -35.34635 | 149.46213 | 38088 ft | 469 kts | 242° |
| 2026-05-04 10:30 | -35.38418 | 149.39709 | 38092 ft | 467 kts | 242° |
| 2026-05-04 10:31 | -35.42196 | 149.33200 | 38096 ft | 469 kts | 242° |
| 2026-05-04 10:32 | -35.55161 | 149.10774 | 38094 ft | 458 kts | 242° |
| 2026-05-04 10:33 | -35.58845 | 149.04371 | 38090 ft | 458 kts | 242° |
| 2026-05-04 10:33 | -35.62519 | 148.97978 | 38101 ft | 460 kts | 242° |
| 2026-05-04 10:34 | -35.66207 | 148.91550 | 38088 ft | 458 kts | 242° |
| 2026-05-04 10:34 | -35.69875 | 148.85144 | 38093 ft | 457 kts | 242° |
| 2026-05-04 10:35 | -35.73524 | 148.78759 | 38093 ft | 455 kts | 242° |
| 2026-05-04 10:35 | -35.77168 | 148.72367 | 38086 ft | 456 kts | 242° |
| 2026-05-04 10:36 | -35.80792 | 148.66003 | 38089 ft | 456 kts | 242° |
| 2026-05-04 10:36 | -35.84443 | 148.59577 | 38095 ft | 457 kts | 243° |
| 2026-05-04 10:37 | -35.88087 | 148.53155 | 38096 ft | 457 kts | 243° |
| 2026-05-04 10:37 | -35.91719 | 148.46723 | 38091 ft | 456 kts | 243° |
| 2026-05-04 10:39 | -36.04388 | 148.24154 | 38089 ft | 460 kts | 243° |
| 2026-05-04 10:40 | -36.08039 | 148.17630 | 38081 ft | 459 kts | 243° |
| 2026-05-04 10:40 | -36.11658 | 148.11148 | 38060 ft | 457 kts | 243° |
| 2026-05-04 10:41 | -36.15278 | 148.04670 | 38058 ft | 457 kts | 243° |
| 2026-05-04 10:41 | -36.18889 | 147.98211 | 38051 ft | 456 kts | 243° |
| 2026-05-04 10:42 | -36.22500 | 147.91732 | 38043 ft | 457 kts | 243° |
| 2026-05-04 10:42 | -36.26119 | 147.85227 | 38053 ft | 460 kts | 243° |
| 2026-05-04 10:43 | -36.29751 | 147.78687 | 38067 ft | 461 kts | 243° |
| 2026-05-04 10:45 | -36.44379 | 147.52172 | 38078 ft | 469 kts | 244° |
| 2026-05-04 10:45 | -36.48059 | 147.45465 | 38075 ft | 470 kts | 244° |
| 2026-05-04 10:46 | -36.51743 | 147.38740 | 38072 ft | 471 kts | 244° |
| 2026-05-04 10:46 | -36.55428 | 147.31998 | 38064 ft | 471 kts | 245° |
| 2026-05-04 10:47 | -36.59103 | 147.25263 | 38042 ft | 470 kts | 244° |
| 2026-05-04 10:47 | -36.62778 | 147.18511 | 38043 ft | 471 kts | 245° |
| 2026-05-04 10:49 | -36.77242 | 146.91809 | 38047 ft | 464 kts | 245° |
| 2026-05-04 10:50 | -36.80856 | 146.85098 | 38050 ft | 468 kts | 246° |
| 2026-05-04 10:52 | -36.95356 | 146.58066 | 38021 ft | 468 kts | 246° |
| 2026-05-04 10:52 | -36.97130 | 146.54755 | 37763 ft | 461 kts | 246° |
| 2026-05-04 10:52 | -36.98909 | 146.51425 | 37525 ft | 460 kts | 246° |
| 2026-05-04 10:54 | -37.11669 | 146.27366 | 32116 ft | 487 kts | 247° |
| 2026-05-04 10:54 | -37.13534 | 146.23860 | 31569 ft | 479 kts | 247° |
| 2026-05-04 10:56 | -37.32392 | 146.06883 | 30995 ft | 537 kts | 192° |
| 2026-05-04 10:56 | -37.36133 | 146.06279 | 30973 ft | 528 kts | 192° |
| 2026-05-04 10:56 | -37.39727 | 146.05704 | 30829 ft | 514 kts | 192° |
| 2026-05-04 10:57 | -37.43226 | 146.05144 | 30675 ft | 501 kts | 192° |
| 2026-05-04 10:57 | -37.46633 | 146.04594 | 30535 ft | 487 kts | 192° |
| 2026-05-04 10:57 | -37.49964 | 146.04060 | 30379 ft | 476 kts | 192° |
| 2026-05-04 10:57 | -37.53233 | 146.03532 | 29898 ft | 474 kts | 192° |
| 2026-05-04 10:58 | -37.56482 | 146.02985 | 29441 ft | 470 kts | 192° |
| 2026-05-04 10:58 | -37.59708 | 146.02425 | 28986 ft | 465 kts | 192° |
| 2026-05-04 10:58 | -37.62911 | 146.01905 | 28520 ft | 462 kts | 191° |
| 2026-05-04 10:58 | -37.66055 | 146.01220 | 28086 ft | 452 kts | 201° |
| 2026-05-04 10:59 | -37.68884 | 145.99810 | 27697 ft | 436 kts | 217° |
| 2026-05-04 10:59 | -37.71307 | 145.97556 | 27155 ft | 418 kts | 234° |
| 2026-05-04 10:59 | -37.73064 | 145.94763 | 26743 ft | 395 kts | 250° |
| 2026-05-04 10:59 | -37.74205 | 145.91714 | 26300 ft | 374 kts | 264° |
| 2026-05-04 11:00 | -37.74776 | 145.88636 | 25889 ft | 355 kts | 276° |
| 2026-05-04 11:01 | -37.68404 | 145.72801 | 23082 ft | 273 kts | 334° |
| 2026-05-04 11:02 | -37.66704 | 145.71809 | 22411 ft | 275 kts | 341° |
| 2026-05-04 11:02 | -37.64888 | 145.71127 | 22036 ft | 271 kts | 343° |
| 2026-05-04 11:05 | -37.56871 | 145.43379 | 15739 ft | 320 kts | 245° |
| 2026-05-04 11:06 | -37.57771 | 145.41849 | 15454 ft | 321 kts | 242° |
| 2026-05-04 11:06 | -37.59102 | 145.39607 | 15019 ft | 320 kts | 242° |
| 2026-05-04 11:06 | -37.60420 | 145.37352 | 14618 ft | 318 kts | 243° |
| 2026-05-04 11:06 | -37.61723 | 145.35105 | 14198 ft | 317 kts | 243° |
| 2026-05-04 11:08 | -37.70350 | 145.20161 | 11596 ft | 278 kts | 243° |
| 2026-05-04 11:10 | -37.77958 | 145.06881 | 8650 ft | 252 kts | 242° |
| 2026-05-04 11:12 | -37.82310 | 144.95448 | 6691 ft | 176 kts | 263° |
| 2026-05-04 11:12 | -37.82566 | 144.93908 | 5919 ft | 180 kts | 265° |
| 2026-05-04 11:12 | -37.82758 | 144.92327 | 5117 ft | 184 kts | 265° |
| 2026-05-04 11:12 | -37.82956 | 144.90725 | 4318 ft | 184 kts | 265° |
| 2026-05-04 11:13 | -37.83147 | 144.89127 | 3530 ft | 181 kts | 270° |
| 2026-05-04 11:13 | -37.82879 | 144.87636 | 2825 ft | 172 kts | 304° |
| 2026-05-04 11:13 | -37.82018 | 144.86719 | 2590 ft | 159 kts | 332° |
| 2026-05-04 11:13 | -37.80942 | 144.86440 | 2526 ft | 158 kts | 348° |
| 2026-05-04 11:14 | -37.79850 | 144.86264 | 2516 ft | 158 kts | 346° |
| 2026-05-04 11:14 | -37.78819 | 144.86059 | 2355 ft | 138 kts | 346° |
| 2026-05-04 11:14 | -37.77927 | 144.85882 | 2136 ft | 122 kts | 346° |
| 2026-05-04 11:16 | -37.72181 | 144.84773 | 1133 ft | 124 kts | 349° |
| 2026-05-04 11:16 | -37.71337 | 144.84573 | 978 ft | 122 kts | 349° |
| 2026-05-04 11:16 | -37.70468 | 144.84365 | 793 ft | 125 kts | 353° |
| 2026-05-04 11:17 | -37.69613 | 144.84253 | 587 ft | 125 kts | 354° |
| 2026-05-04 11:17 | -37.68770 | 144.84121 | 400 ft | 121 kts | 353° |
| 2026-05-04 11:19 | -37.66819 | 144.83922 | 403 ft | 6 kts | 21° |
| 2026-05-04 11:19 | -37.66786 | 144.83938 | 402 ft | 0 kts | 22° |
| 2026-05-04 11:19 | -37.66785 | 144.83939 | 400 ft | 0 kts | 24° |